sensor_id;sensor_type;location;lat;lon;timestamp;P1;durP1;ratioP1;P2;durP2;ratioP2
19802;SDS011;66074;50.764;6.090;2023-01-01T00:01:26;8.73;;;2.10;;
19802;SDS011;66074;50.764;6.090;2023-01-01T00:03:54;4.93;;;1.70;;
19802;SDS011;66074;50.764;6.090;2023-01-01T00:06:21;4.32;;;1.73;;
19802;SDS011;66074;50.764;6.090;2023-01-01T00:08:48;8.27;;;1.90;;
19802;SDS011;66074;50.764;6.090;2023-01-01T00:11:33;4.47;;;1.65;;
19802;SDS011;66074;50.764;6.090;2023-01-01T00:13:59;6.65;;;1.17;;
19802;SDS011;66074;50.764;6.090;2023-01-01T00:16:25;3.00;;;1.40;;
19802;SDS011;66074;50.764;6.090;2023-01-01T00:18:50;4.05;;;1.52;;
19802;SDS011;66074;50.764;6.090;2023-01-01T00:21:16;6.22;;;1.30;;
19802;SDS011;66074;50.764;6.090;2023-01-01T00:23:41;4.40;;;1.38;;
19802;SDS011;66074;50.764;6.090;2023-01-01T00:26:08;5.22;;;1.13;;
19802;SDS011;66074;50.764;6.090;2023-01-01T00:28:35;3.22;;;1.00;;
19802;SDS011;66074;50.764;6.090;2023-01-01T00:31:05;3.65;;;0.95;;
19802;SDS011;66074;50.764;6.090;2023-01-01T00:33:34;3.53;;;1.08;;
19802;SDS011;66074;50.764;6.090;2023-01-01T00:36:12;1.60;;;1.00;;
19802;SDS011;66074;50.764;6.090;2023-01-01T00:38:39;2.92;;;1.08;;
19802;SDS011;66074;50.764;6.090;2023-01-01T00:41:05;2.08;;;0.90;;
19802;SDS011;66074;50.764;6.090;2023-01-01T00:43:31;3.03;;;1.10;;
19802;SDS011;66074;50.764;6.090;2023-01-01T00:45:57;1.98;;;0.75;;
19802;SDS011;66074;50.764;6.090;2023-01-01T00:48:22;3.08;;;1.42;;
19802;SDS011;66074;50.764;6.090;2023-01-01T00:50:49;3.58;;;1.27;;
19802;SDS011;66074;50.764;6.090;2023-01-01T00:53:16;2.67;;;1.15;;
19802;SDS011;66074;50.764;6.090;2023-01-01T00:55:43;4.80;;;1.45;;
19802;SDS011;66074;50.764;6.090;2023-01-01T00:58:09;5.45;;;1.10;;
19802;SDS011;66074;50.764;6.090;2023-01-01T01:00:35;5.25;;;1.05;;
19802;SDS011;66074;50.764;6.090;2023-01-01T01:03:01;2.47;;;1.20;;
19802;SDS011;66074;50.764;6.090;2023-01-01T01:05:27;3.83;;;1.08;;
19802;SDS011;66074;50.764;6.090;2023-01-01T01:07:53;4.97;;;1.10;;
19802;SDS011;66074;50.764;6.090;2023-01-01T01:10:18;4.63;;;1.17;;
19802;SDS011;66074;50.764;6.090;2023-01-01T01:12:46;4.85;;;1.42;;
19802;SDS011;66074;50.764;6.090;2023-01-01T01:15:11;2.10;;;1.02;;
19802;SDS011;66074;50.764;6.090;2023-01-01T01:17:37;4.15;;;1.00;;
19802;SDS011;66074;50.764;6.090;2023-01-01T01:20:03;1.70;;;0.90;;
19802;SDS011;66074;50.764;6.090;2023-01-01T01:22:29;3.00;;;1.05;;
19802;SDS011;66074;50.764;6.090;2023-01-01T01:24:55;2.67;;;0.90;;
19802;SDS011;66074;50.764;6.090;2023-01-01T01:27:21;3.67;;;1.05;;
19802;SDS011;66074;50.764;6.090;2023-01-01T01:29:47;2.55;;;0.90;;
19802;SDS011;66074;50.764;6.090;2023-01-01T01:32:13;3.03;;;0.88;;
19802;SDS011;66074;50.764;6.090;2023-01-01T01:34:39;2.22;;;0.98;;
19802;SDS011;66074;50.764;6.090;2023-01-01T01:37:04;1.88;;;1.10;;
19802;SDS011;66074;50.764;6.090;2023-01-01T01:39:30;3.38;;;1.08;;
19802;SDS011;66074;50.764;6.090;2023-01-01T01:41:56;3.88;;;1.17;;
19802;SDS011;66074;50.764;6.090;2023-01-01T01:50:31;1.98;;;1.00;;
19802;SDS011;66074;50.764;6.090;2023-01-01T01:53:08;2.22;;;0.93;;
19802;SDS011;66074;50.764;6.090;2023-01-01T01:56:12;5.68;;;1.83;;
19802;SDS011;66074;50.764;6.090;2023-01-01T01:58:45;1.83;;;0.85;;
19802;SDS011;66074;50.764;6.090;2023-01-01T02:01:11;4.88;;;1.27;;
19802;SDS011;66074;50.764;6.090;2023-01-01T02:03:45;3.65;;;1.10;;
19802;SDS011;66074;50.764;6.090;2023-01-01T02:06:16;2.13;;;0.90;;
19802;SDS011;66074;50.764;6.090;2023-01-01T02:08:44;4.28;;;1.10;;
19802;SDS011;66074;50.764;6.090;2023-01-01T02:11:09;4.20;;;1.33;;
19802;SDS011;66074;50.764;6.090;2023-01-01T02:13:35;4.65;;;1.23;;
19802;SDS011;66074;50.764;6.090;2023-01-01T02:21:10;2.25;;;0.88;;
19802;SDS011;66074;50.764;6.090;2023-01-01T02:32:37;2.65;;;0.80;;
19802;SDS011;66074;50.764;6.090;2023-01-01T02:34:56;2.67;;;1.10;;
19802;SDS011;66074;50.764;6.090;2023-01-01T02:37:49;2.85;;;1.13;;
19802;SDS011;66074;50.764;6.090;2023-01-01T02:40:18;3.50;;;1.25;;
19802;SDS011;66074;50.764;6.090;2023-01-01T02:42:48;4.72;;;1.05;;
19802;SDS011;66074;50.764;6.090;2023-01-01T02:45:14;3.80;;;1.10;;
19802;SDS011;66074;50.764;6.090;2023-01-01T02:47:40;3.72;;;1.23;;
19802;SDS011;66074;50.764;6.090;2023-01-01T03:06:54;3.13;;;1.38;;
19802;SDS011;66074;50.764;6.090;2023-01-01T03:18:16;4.22;;;1.20;;
19802;SDS011;66074;50.764;6.090;2023-01-01T03:20:49;3.00;;;0.82;;
19802;SDS011;66074;50.764;6.090;2023-01-01T03:23:19;1.60;;;1.17;;
19802;SDS011;66074;50.764;6.090;2023-01-01T03:25:49;5.40;;;1.23;;
19802;SDS011;66074;50.764;6.090;2023-01-01T03:28:19;6.88;;;1.42;;
19802;SDS011;66074;50.764;6.090;2023-01-01T03:30:50;2.13;;;1.02;;
19802;SDS011;66074;50.764;6.090;2023-01-01T03:33:20;2.95;;;0.88;;
19802;SDS011;66074;50.764;6.090;2023-01-01T03:36:02;6.25;;;3.92;;
19802;SDS011;66074;50.764;6.090;2023-01-01T03:38:44;2.90;;;1.02;;
19802;SDS011;66074;50.764;6.090;2023-01-01T03:41:21;2.53;;;1.15;;
19802;SDS011;66074;50.764;6.090;2023-01-01T03:46:32;3.03;;;1.10;;
19802;SDS011;66074;50.764;6.090;2023-01-01T03:49:00;2.08;;;1.25;;
19802;SDS011;66074;50.764;6.090;2023-01-01T04:00:10;1.73;;;0.98;;
19802;SDS011;66074;50.764;6.090;2023-01-01T04:02:45;4.47;;;1.35;;
19802;SDS011;66074;50.764;6.090;2023-01-01T04:05:22;5.55;;;1.20;;
19802;SDS011;66074;50.764;6.090;2023-01-01T04:07:48;4.15;;;1.15;;
19802;SDS011;66074;50.764;6.090;2023-01-01T04:10:15;2.70;;;1.30;;
19802;SDS011;66074;50.764;6.090;2023-01-01T04:12:45;3.05;;;1.15;;
19802;SDS011;66074;50.764;6.090;2023-01-01T04:15:14;2.83;;;0.98;;
19802;SDS011;66074;50.764;6.090;2023-01-01T04:17:41;3.25;;;1.20;;
19802;SDS011;66074;50.764;6.090;2023-01-01T04:20:07;2.85;;;1.10;;
19802;SDS011;66074;50.764;6.090;2023-01-01T04:22:33;3.63;;;1.23;;
19802;SDS011;66074;50.764;6.090;2023-01-01T04:24:59;2.45;;;1.25;;
19802;SDS011;66074;50.764;6.090;2023-01-01T04:27:25;4.70;;;1.10;;
19802;SDS011;66074;50.764;6.090;2023-01-01T04:29:50;1.83;;;1.10;;
19802;SDS011;66074;50.764;6.090;2023-01-01T04:32:16;5.10;;;1.17;;
19802;SDS011;66074;50.764;6.090;2023-01-01T04:34:41;3.70;;;1.60;;
19802;SDS011;66074;50.764;6.090;2023-01-01T04:37:07;3.17;;;1.30;;
19802;SDS011;66074;50.764;6.090;2023-01-01T04:39:33;4.63;;;1.45;;
19802;SDS011;66074;50.764;6.090;2023-01-01T04:41:58;2.38;;;1.27;;
19802;SDS011;66074;50.764;6.090;2023-01-01T04:44:24;4.20;;;1.30;;
19802;SDS011;66074;50.764;6.090;2023-01-01T04:46:49;3.97;;;1.20;;
19802;SDS011;66074;50.764;6.090;2023-01-01T04:49:15;2.47;;;1.10;;
19802;SDS011;66074;50.764;6.090;2023-01-01T04:51:41;2.72;;;1.27;;
19802;SDS011;66074;50.764;6.090;2023-01-01T04:54:06;3.38;;;1.10;;
19802;SDS011;66074;50.764;6.090;2023-01-01T04:56:32;2.75;;;1.05;;
19802;SDS011;66074;50.764;6.090;2023-01-01T04:58:58;5.55;;;1.40;;
19802;SDS011;66074;50.764;6.090;2023-01-01T05:01:24;3.25;;;1.15;;
19802;SDS011;66074;50.764;6.090;2023-01-01T05:03:52;4.35;;;1.05;;
19802;SDS011;66074;50.764;6.090;2023-01-01T05:06:19;3.75;;;1.10;;
19802;SDS011;66074;50.764;6.090;2023-01-01T05:08:46;5.43;;;1.15;;
19802;SDS011;66074;50.764;6.090;2023-01-01T05:13:44;3.92;;;1.20;;
19802;SDS011;66074;50.764;6.090;2023-01-01T05:16:12;4.93;;;1.10;;
19802;SDS011;66074;50.764;6.090;2023-01-01T05:18:39;6.78;;;1.20;;
19802;SDS011;66074;50.764;6.090;2023-01-01T05:21:06;2.65;;;1.13;;
19802;SDS011;66074;50.764;6.090;2023-01-01T05:23:36;2.45;;;0.90;;
19802;SDS011;66074;50.764;6.090;2023-01-01T05:26:09;3.65;;;1.08;;
19802;SDS011;66074;50.764;6.090;2023-01-01T05:28:39;4.05;;;1.30;;
19802;SDS011;66074;50.764;6.090;2023-01-01T05:31:06;2.40;;;1.00;;
19802;SDS011;66074;50.764;6.090;2023-01-01T05:33:33;2.28;;;1.10;;
19802;SDS011;66074;50.764;6.090;2023-01-01T05:35:59;3.85;;;1.30;;
19802;SDS011;66074;50.764;6.090;2023-01-01T05:38:25;3.90;;;1.30;;
19802;SDS011;66074;50.764;6.090;2023-01-01T05:40:50;2.95;;;1.50;;
19802;SDS011;66074;50.764;6.090;2023-01-01T05:43:16;5.07;;;1.23;;
19802;SDS011;66074;50.764;6.090;2023-01-01T05:45:42;5.25;;;1.30;;
19802;SDS011;66074;50.764;6.090;2023-01-01T05:48:08;4.65;;;1.48;;
19802;SDS011;66074;50.764;6.090;2023-01-01T05:50:35;3.53;;;1.15;;
19802;SDS011;66074;50.764;6.090;2023-01-01T05:53:01;3.72;;;1.10;;
19802;SDS011;66074;50.764;6.090;2023-01-01T05:55:26;4.20;;;1.70;;
19802;SDS011;66074;50.764;6.090;2023-01-01T05:57:52;4.65;;;1.70;;
19802;SDS011;66074;50.764;6.090;2023-01-01T06:00:17;2.03;;;1.10;;
19802;SDS011;66074;50.764;6.090;2023-01-01T06:02:43;4.68;;;1.38;;
19802;SDS011;66074;50.764;6.090;2023-01-01T06:05:09;3.30;;;1.13;;
19802;SDS011;66074;50.764;6.090;2023-01-01T06:07:34;2.60;;;1.27;;
19802;SDS011;66074;50.764;6.090;2023-01-01T06:10:00;4.32;;;1.65;;
19802;SDS011;66074;50.764;6.090;2023-01-01T06:12:26;5.93;;;1.48;;
19802;SDS011;66074;50.764;6.090;2023-01-01T06:14:52;2.58;;;1.05;;
19802;SDS011;66074;50.764;6.090;2023-01-01T06:17:17;2.83;;;1.30;;
19802;SDS011;66074;50.764;6.090;2023-01-01T06:19:43;1.63;;;1.10;;
19802;SDS011;66074;50.764;6.090;2023-01-01T06:22:08;4.38;;;1.20;;
19802;SDS011;66074;50.764;6.090;2023-01-01T06:24:34;2.67;;;1.40;;
19802;SDS011;66074;50.764;6.090;2023-01-01T06:26:59;3.65;;;1.70;;
19802;SDS011;66074;50.764;6.090;2023-01-01T06:29:25;2.75;;;1.30;;
19802;SDS011;66074;50.764;6.090;2023-01-01T06:31:51;3.38;;;1.40;;
19802;SDS011;66074;50.764;6.090;2023-01-01T06:34:16;2.22;;;0.98;;
19802;SDS011;66074;50.764;6.090;2023-01-01T06:36:42;2.53;;;1.10;;
19802;SDS011;66074;50.764;6.090;2023-01-01T06:39:07;3.22;;;1.27;;
19802;SDS011;66074;50.764;6.090;2023-01-01T06:41:33;3.22;;;1.17;;
19802;SDS011;66074;50.764;6.090;2023-01-01T06:43:59;3.30;;;1.30;;
19802;SDS011;66074;50.764;6.090;2023-01-01T06:48:53;2.03;;;1.00;;
19802;SDS011;66074;50.764;6.090;2023-01-01T06:51:24;4.05;;;1.67;;
19802;SDS011;66074;50.764;6.090;2023-01-01T06:53:56;3.75;;;1.17;;
19802;SDS011;66074;50.764;6.090;2023-01-01T06:56:25;2.80;;;1.17;;
19802;SDS011;66074;50.764;6.090;2023-01-01T06:58:52;5.85;;;1.40;;
19802;SDS011;66074;50.764;6.090;2023-01-01T07:01:19;3.15;;;1.40;;
19802;SDS011;66074;50.764;6.090;2023-01-01T07:03:59;3.38;;;1.38;;
19802;SDS011;66074;50.764;6.090;2023-01-01T07:06:27;2.95;;;1.10;;
19802;SDS011;66074;50.764;6.090;2023-01-01T07:08:54;3.25;;;1.15;;
19802;SDS011;66074;50.764;6.090;2023-01-01T07:11:20;4.78;;;1.67;;
19802;SDS011;66074;50.764;6.090;2023-01-01T07:13:46;3.15;;;1.30;;
19802;SDS011;66074;50.764;6.090;2023-01-01T07:16:12;3.03;;;1.30;;
19802;SDS011;66074;50.764;6.090;2023-01-01T07:18:38;5.90;;;1.50;;
19802;SDS011;66074;50.764;6.090;2023-01-01T07:21:04;2.92;;;1.30;;
19802;SDS011;66074;50.764;6.090;2023-01-01T07:23:45;3.72;;;1.35;;
19802;SDS011;66074;50.764;6.090;2023-01-01T07:26:11;2.88;;;1.00;;
19802;SDS011;66074;50.764;6.090;2023-01-01T07:28:36;3.83;;;1.80;;
19802;SDS011;66074;50.764;6.090;2023-01-01T07:31:02;3.17;;;1.52;;
19802;SDS011;66074;50.764;6.090;2023-01-01T07:33:27;5.32;;;1.50;;
19802;SDS011;66074;50.764;6.090;2023-01-01T07:35:53;2.00;;;1.20;;
19802;SDS011;66074;50.764;6.090;2023-01-01T07:38:19;4.57;;;1.10;;
19802;SDS011;66074;50.764;6.090;2023-01-01T07:40:44;3.40;;;1.48;;
19802;SDS011;66074;50.764;6.090;2023-01-01T07:43:10;3.20;;;1.17;;
19802;SDS011;66074;50.764;6.090;2023-01-01T07:45:38;3.97;;;1.15;;
19802;SDS011;66074;50.764;6.090;2023-01-01T07:48:04;4.18;;;1.60;;
19802;SDS011;66074;50.764;6.090;2023-01-01T07:50:31;3.40;;;1.20;;
19802;SDS011;66074;50.764;6.090;2023-01-01T07:52:57;6.43;;;1.63;;
19802;SDS011;66074;50.764;6.090;2023-01-01T07:55:23;3.67;;;1.40;;
19802;SDS011;66074;50.764;6.090;2023-01-01T07:57:49;5.88;;;1.70;;
19802;SDS011;66074;50.764;6.090;2023-01-01T08:00:16;3.92;;;1.77;;
19802;SDS011;66074;50.764;6.090;2023-01-01T08:02:43;3.13;;;1.85;;
19802;SDS011;66074;50.764;6.090;2023-01-01T08:05:09;2.92;;;1.15;;
19802;SDS011;66074;50.764;6.090;2023-01-01T08:07:35;3.72;;;1.13;;
19802;SDS011;66074;50.764;6.090;2023-01-01T08:10:03;3.05;;;1.20;;
19802;SDS011;66074;50.764;6.090;2023-01-01T08:12:29;3.30;;;1.40;;
19802;SDS011;66074;50.764;6.090;2023-01-01T08:14:55;4.65;;;1.48;;
19802;SDS011;66074;50.764;6.090;2023-01-01T08:17:20;4.97;;;1.77;;
19802;SDS011;66074;50.764;6.090;2023-01-01T08:19:46;3.72;;;1.20;;
19802;SDS011;66074;50.764;6.090;2023-01-01T08:22:13;3.20;;;1.33;;
19802;SDS011;66074;50.764;6.090;2023-01-01T08:24:39;6.05;;;1.25;;
19802;SDS011;66074;50.764;6.090;2023-01-01T08:27:05;3.03;;;1.23;;
19802;SDS011;66074;50.764;6.090;2023-01-01T08:29:31;2.15;;;1.00;;
19802;SDS011;66074;50.764;6.090;2023-01-01T08:31:56;4.18;;;1.15;;
19802;SDS011;66074;50.764;6.090;2023-01-01T08:34:22;4.05;;;1.40;;
19802;SDS011;66074;50.764;6.090;2023-01-01T08:36:47;5.40;;;1.67;;
19802;SDS011;66074;50.764;6.090;2023-01-01T08:39:13;3.40;;;1.40;;
19802;SDS011;66074;50.764;6.090;2023-01-01T08:41:38;3.78;;;1.50;;
19802;SDS011;66074;50.764;6.090;2023-01-01T08:44:04;4.32;;;1.40;;
19802;SDS011;66074;50.764;6.090;2023-01-01T08:46:30;4.07;;;1.20;;
19802;SDS011;66074;50.764;6.090;2023-01-01T08:48:55;2.35;;;1.13;;
19802;SDS011;66074;50.764;6.090;2023-01-01T08:51:21;4.13;;;1.10;;
19802;SDS011;66074;50.764;6.090;2023-01-01T08:53:46;3.85;;;1.33;;
19802;SDS011;66074;50.764;6.090;2023-01-01T08:56:12;5.80;;;1.33;;
19802;SDS011;66074;50.764;6.090;2023-01-01T08:58:39;4.07;;;1.48;;
19802;SDS011;66074;50.764;6.090;2023-01-01T09:01:06;5.53;;;2.20;;
19802;SDS011;66074;50.764;6.090;2023-01-01T09:03:33;3.47;;;1.08;;
19802;SDS011;66074;50.764;6.090;2023-01-01T09:05:59;3.17;;;1.20;;
19802;SDS011;66074;50.764;6.090;2023-01-01T09:08:25;2.50;;;1.10;;
19802;SDS011;66074;50.764;6.090;2023-01-01T09:10:51;1.85;;;1.30;;
19802;SDS011;66074;50.764;6.090;2023-01-01T09:13:19;3.72;;;1.27;;
19802;SDS011;66074;50.764;6.090;2023-01-01T09:15:46;3.40;;;1.13;;
19802;SDS011;66074;50.764;6.090;2023-01-01T09:18:11;4.22;;;1.70;;
19802;SDS011;66074;50.764;6.090;2023-01-01T09:20:37;3.58;;;1.63;;
19802;SDS011;66074;50.764;6.090;2023-01-01T09:23:04;3.95;;;1.40;;
19802;SDS011;66074;50.764;6.090;2023-01-01T09:25:30;2.95;;;1.20;;
19802;SDS011;66074;50.764;6.090;2023-01-01T09:27:57;2.78;;;1.50;;
19802;SDS011;66074;50.764;6.090;2023-01-01T09:30:23;3.63;;;1.30;;
19802;SDS011;66074;50.764;6.090;2023-01-01T09:32:49;4.80;;;1.48;;
19802;SDS011;66074;50.764;6.090;2023-01-01T09:35:15;6.22;;;1.48;;
19802;SDS011;66074;50.764;6.090;2023-01-01T09:37:40;4.05;;;1.63;;
19802;SDS011;66074;50.764;6.090;2023-01-01T09:40:06;5.10;;;1.60;;
19802;SDS011;66074;50.764;6.090;2023-01-01T09:42:48;3.70;;;1.10;;
19802;SDS011;66074;50.764;6.090;2023-01-01T09:45:27;3.13;;;1.42;;
19802;SDS011;66074;50.764;6.090;2023-01-01T09:47:59;5.38;;;1.63;;
19802;SDS011;66074;50.764;6.090;2023-01-01T09:50:35;4.00;;;1.63;;
19802;SDS011;66074;50.764;6.090;2023-01-01T09:53:14;4.05;;;1.25;;
19802;SDS011;66074;50.764;6.090;2023-01-01T09:58:16;3.25;;;1.27;;
19802;SDS011;66074;50.764;6.090;2023-01-01T10:04:17;4.97;;;1.77;;
19802;SDS011;66074;50.764;6.090;2023-01-01T10:06:54;6.75;;;1.70;;
19802;SDS011;66074;50.764;6.090;2023-01-01T10:14:31;4.45;;;1.30;;
19802;SDS011;66074;50.764;6.090;2023-01-01T10:17:02;6.07;;;1.67;;
19802;SDS011;66074;50.764;6.090;2023-01-01T10:19:59;2.72;;;1.30;;
19802;SDS011;66074;50.764;6.090;2023-01-01T10:22:43;4.72;;;1.58;;
19802;SDS011;66074;50.764;6.090;2023-01-01T10:25:20;3.53;;;1.50;;
19802;SDS011;66074;50.764;6.090;2023-01-01T10:30:15;4.63;;;1.25;;
19802;SDS011;66074;50.764;6.090;2023-01-01T10:32:45;7.18;;;1.65;;
19802;SDS011;66074;50.764;6.090;2023-01-01T10:35:13;3.17;;;1.00;;
19802;SDS011;66074;50.764;6.090;2023-01-01T10:37:43;5.68;;;1.90;;
19802;SDS011;66074;50.764;6.090;2023-01-01T10:40:13;5.20;;;1.70;;
19802;SDS011;66074;50.764;6.090;2023-01-01T10:42:43;3.72;;;1.33;;
19802;SDS011;66074;50.764;6.090;2023-01-01T10:45:13;6.28;;;1.38;;
19802;SDS011;66074;50.764;6.090;2023-01-01T10:48:07;5.03;;;1.67;;
19802;SDS011;66074;50.764;6.090;2023-01-01T10:50:58;2.75;;;1.35;;
19802;SDS011;66074;50.764;6.090;2023-01-01T10:56:20;4.55;;;1.02;;
19802;SDS011;66074;50.764;6.090;2023-01-01T10:58:48;2.55;;;1.20;;
19802;SDS011;66074;50.764;6.090;2023-01-01T11:01:24;2.47;;;1.00;;
19802;SDS011;66074;50.764;6.090;2023-01-01T11:03:59;2.97;;;1.35;;
19802;SDS011;66074;50.764;6.090;2023-01-01T11:06:31;3.70;;;1.50;;
19802;SDS011;66074;50.764;6.090;2023-01-01T11:08:59;4.32;;;1.23;;
19802;SDS011;66074;50.764;6.090;2023-01-01T11:14:16;4.65;;;1.50;;
19802;SDS011;66074;50.764;6.090;2023-01-01T11:16:44;2.55;;;1.30;;
19802;SDS011;66074;50.764;6.090;2023-01-01T11:19:16;6.25;;;1.73;;
19802;SDS011;66074;50.764;6.090;2023-01-01T11:21:51;3.30;;;1.30;;
19802;SDS011;66074;50.764;6.090;2023-01-01T11:24:24;3.22;;;1.83;;
19802;SDS011;66074;50.764;6.090;2023-01-01T11:26:53;3.20;;;1.65;;
19802;SDS011;66074;50.764;6.090;2023-01-01T11:29:36;2.88;;;1.60;;
19802;SDS011;66074;50.764;6.090;2023-01-01T11:32:02;3.88;;;1.30;;
19802;SDS011;66074;50.764;6.090;2023-01-01T11:34:32;5.53;;;1.67;;
19802;SDS011;66074;50.764;6.090;2023-01-01T11:37:18;3.63;;;1.40;;
19802;SDS011;66074;50.764;6.090;2023-01-01T11:39:51;5.15;;;1.40;;
19802;SDS011;66074;50.764;6.090;2023-01-01T11:42:23;3.90;;;1.30;;
19802;SDS011;66074;50.764;6.090;2023-01-01T11:44:54;2.15;;;1.17;;
19802;SDS011;66074;50.764;6.090;2023-01-01T11:47:39;4.22;;;1.25;;
19802;SDS011;66074;50.764;6.090;2023-01-01T11:52:39;3.90;;;1.75;;
19802;SDS011;66074;50.764;6.090;2023-01-01T12:00:29;3.20;;;1.30;;
19802;SDS011;66074;50.764;6.090;2023-01-01T12:03:00;4.65;;;1.50;;
19802;SDS011;66074;50.764;6.090;2023-01-01T12:05:45;4.03;;;1.50;;
19802;SDS011;66074;50.764;6.090;2023-01-01T12:08:14;4.38;;;1.30;;
19802;SDS011;66074;50.764;6.090;2023-01-01T12:10:50;4.20;;;1.40;;
19802;SDS011;66074;50.764;6.090;2023-01-01T12:13:22;3.03;;;1.10;;
19802;SDS011;66074;50.764;6.090;2023-01-01T12:18:24;5.07;;;1.60;;
19802;SDS011;66074;50.764;6.090;2023-01-01T12:21:02;3.22;;;1.30;;
19802;SDS011;66074;50.764;6.090;2023-01-01T12:23:38;3.70;;;1.10;;
19802;SDS011;66074;50.764;6.090;2023-01-01T12:28:36;5.15;;;1.40;;
19802;SDS011;66074;50.764;6.090;2023-01-01T12:48:08;6.18;;;1.10;;
19802;SDS011;66074;50.764;6.090;2023-01-01T12:56:11;5.32;;;1.23;;
19802;SDS011;66074;50.764;6.090;2023-01-01T12:58:50;2.70;;;1.10;;
19802;SDS011;66074;50.764;6.090;2023-01-01T13:01:21;4.72;;;1.20;;
19802;SDS011;66074;50.764;6.090;2023-01-01T13:03:56;4.75;;;1.38;;
19802;SDS011;66074;50.764;6.090;2023-01-01T13:09:06;4.00;;;1.02;;
19802;SDS011;66074;50.764;6.090;2023-01-01T13:11:37;3.92;;;1.08;;
19802;SDS011;66074;50.764;6.090;2023-01-01T13:14:04;4.07;;;1.17;;
19802;SDS011;66074;50.764;6.090;2023-01-01T13:16:40;3.70;;;1.02;;
19802;SDS011;66074;50.764;6.090;2023-01-01T13:19:21;3.97;;;1.38;;
19802;SDS011;66074;50.764;6.090;2023-01-01T13:21:48;2.25;;;1.10;;
19802;SDS011;66074;50.764;6.090;2023-01-01T13:24:18;3.85;;;1.20;;
19802;SDS011;66074;50.764;6.090;2023-01-01T13:26:48;3.60;;;1.30;;
19802;SDS011;66074;50.764;6.090;2023-01-01T13:42:41;2.28;;;1.17;;
19802;SDS011;66074;50.764;6.090;2023-01-01T13:45:34;3.28;;;1.00;;
19802;SDS011;66074;50.764;6.090;2023-01-01T13:53:39;3.38;;;1.20;;
19802;SDS011;66074;50.764;6.090;2023-01-01T14:02:35;3.03;;;0.98;;
19802;SDS011;66074;50.764;6.090;2023-01-01T14:05:16;3.42;;;1.17;;
19802;SDS011;66074;50.764;6.090;2023-01-01T14:07:53;3.53;;;1.00;;
19802;SDS011;66074;50.764;6.090;2023-01-01T14:12:45;3.10;;;0.90;;
19802;SDS011;66074;50.764;6.090;2023-01-01T14:15:15;2.60;;;1.05;;
19802;SDS011;66074;50.764;6.090;2023-01-01T14:17:55;2.35;;;0.90;;
19802;SDS011;66074;50.764;6.090;2023-01-01T14:20:25;2.47;;;1.58;;
19802;SDS011;66074;50.764;6.090;2023-01-01T14:23:04;2.55;;;0.80;;
19802;SDS011;66074;50.764;6.090;2023-01-01T14:25:34;2.78;;;1.17;;
19802;SDS011;66074;50.764;6.090;2023-01-01T14:28:00;3.88;;;1.08;;
19802;SDS011;66074;50.764;6.090;2023-01-01T14:30:26;1.73;;;0.88;;
19802;SDS011;66074;50.764;6.090;2023-01-01T14:32:56;2.13;;;0.70;;
19802;SDS011;66074;50.764;6.090;2023-01-01T14:35:23;2.38;;;1.65;;
19802;SDS011;66074;50.764;6.090;2023-01-01T14:37:49;2.13;;;1.00;;
19802;SDS011;66074;50.764;6.090;2023-01-01T14:40:16;2.20;;;0.82;;
19802;SDS011;66074;50.764;6.090;2023-01-01T14:42:53;1.85;;;0.88;;
19802;SDS011;66074;50.764;6.090;2023-01-01T14:45:29;1.40;;;0.93;;
19802;SDS011;66074;50.764;6.090;2023-01-01T14:47:58;1.80;;;0.77;;
19802;SDS011;66074;50.764;6.090;2023-01-01T14:50:31;2.53;;;1.02;;
19802;SDS011;66074;50.764;6.090;2023-01-01T14:53:05;2.60;;;1.00;;
19802;SDS011;66074;50.764;6.090;2023-01-01T14:55:36;4.53;;;1.00;;
19802;SDS011;66074;50.764;6.090;2023-01-01T14:58:09;3.17;;;1.08;;
19802;SDS011;66074;50.764;6.090;2023-01-01T15:01:13;2.65;;;0.80;;
19802;SDS011;66074;50.764;6.090;2023-01-01T15:03:56;3.30;;;0.88;;
19802;SDS011;66074;50.764;6.090;2023-01-01T15:06:23;1.83;;;0.88;;
19802;SDS011;66074;50.764;6.090;2023-01-01T15:08:49;3.22;;;1.23;;
19802;SDS011;66074;50.764;6.090;2023-01-01T15:11:16;3.05;;;1.30;;
19802;SDS011;66074;50.764;6.090;2023-01-01T15:13:58;1.85;;;1.20;;
19802;SDS011;66074;50.764;6.090;2023-01-01T15:16:25;2.05;;;1.30;;
19802;SDS011;66074;50.764;6.090;2023-01-01T15:18:51;2.75;;;1.40;;
19802;SDS011;66074;50.764;6.090;2023-01-01T15:24:02;3.30;;;1.50;;
19802;SDS011;66074;50.764;6.090;2023-01-01T15:26:41;2.97;;;1.35;;
19802;SDS011;66074;50.764;6.090;2023-01-01T15:32:07;3.28;;;1.10;;
19802;SDS011;66074;50.764;6.090;2023-01-01T15:42:42;3.50;;;1.20;;
19802;SDS011;66074;50.764;6.090;2023-01-01T15:47:56;3.95;;;1.15;;
19802;SDS011;66074;50.764;6.090;2023-01-01T15:53:32;2.53;;;1.20;;
19802;SDS011;66074;50.764;6.090;2023-01-01T15:56:10;3.08;;;1.20;;
19802;SDS011;66074;50.764;6.090;2023-01-01T16:01:21;2.55;;;1.23;;
19802;SDS011;66074;50.764;6.090;2023-01-01T16:03:49;9.65;;;2.78;;
19802;SDS011;66074;50.764;6.090;2023-01-01T16:06:19;5.80;;;3.60;;
19802;SDS011;66074;50.764;6.090;2023-01-01T16:08:46;3.38;;;1.83;;
19802;SDS011;66074;50.764;6.090;2023-01-01T16:11:12;3.47;;;1.40;;
19802;SDS011;66074;50.764;6.090;2023-01-01T16:13:38;4.22;;;1.50;;
19802;SDS011;66074;50.764;6.090;2023-01-01T16:16:04;2.17;;;1.30;;
19802;SDS011;66074;50.764;6.090;2023-01-01T16:18:48;3.03;;;1.05;;
19802;SDS011;66074;50.764;6.090;2023-01-01T16:21:14;2.72;;;1.30;;
19802;SDS011;66074;50.764;6.090;2023-01-01T16:23:40;2.83;;;1.30;;
19802;SDS011;66074;50.764;6.090;2023-01-01T16:26:06;2.80;;;1.50;;
19802;SDS011;66074;50.764;6.090;2023-01-01T16:28:31;2.65;;;1.33;;
19802;SDS011;66074;50.764;6.090;2023-01-01T16:30:57;2.78;;;1.25;;
19802;SDS011;66074;50.764;6.090;2023-01-01T16:33:22;2.75;;;1.42;;
19802;SDS011;66074;50.764;6.090;2023-01-01T16:35:48;2.75;;;1.30;;
19802;SDS011;66074;50.764;6.090;2023-01-01T16:38:14;2.40;;;1.50;;
19802;SDS011;66074;50.764;6.090;2023-01-01T16:40:39;5.60;;;2.55;;
19802;SDS011;66074;50.764;6.090;2023-01-01T16:43:05;2.90;;;2.35;;
19802;SDS011;66074;50.764;6.090;2023-01-01T16:45:40;3.58;;;2.20;;
19802;SDS011;66074;50.764;6.090;2023-01-01T16:48:05;4.35;;;1.60;;
19802;SDS011;66074;50.764;6.090;2023-01-01T16:50:32;3.33;;;1.85;;
19802;SDS011;66074;50.764;6.090;2023-01-01T16:52:58;3.20;;;1.60;;
19802;SDS011;66074;50.764;6.090;2023-01-01T16:55:23;2.78;;;1.73;;
19802;SDS011;66074;50.764;6.090;2023-01-01T16:57:49;3.90;;;1.98;;
19802;SDS011;66074;50.764;6.090;2023-01-01T17:00:15;6.22;;;2.05;;
19802;SDS011;66074;50.764;6.090;2023-01-01T17:02:40;3.70;;;2.20;;
19802;SDS011;66074;50.764;6.090;2023-01-01T17:05:06;3.85;;;2.95;;
19802;SDS011;66074;50.764;6.090;2023-01-01T17:07:33;3.70;;;2.40;;
19802;SDS011;66074;50.764;6.090;2023-01-01T17:09:58;6.78;;;3.92;;
19802;SDS011;66074;50.764;6.090;2023-01-01T17:12:24;3.35;;;2.72;;
19802;SDS011;66074;50.764;6.090;2023-01-01T17:14:49;5.72;;;4.25;;
19802;SDS011;66074;50.764;6.090;2023-01-01T17:17:15;7.18;;;4.15;;
19802;SDS011;66074;50.764;6.090;2023-01-01T17:19:41;3.85;;;2.92;;
19802;SDS011;66074;50.764;6.090;2023-01-01T17:22:06;4.85;;;3.80;;
19802;SDS011;66074;50.764;6.090;2023-01-01T17:24:32;4.50;;;2.97;;
19802;SDS011;66074;50.764;6.090;2023-01-01T17:26:57;3.65;;;2.42;;
19802;SDS011;66074;50.764;6.090;2023-01-01T17:29:23;5.32;;;3.20;;
19802;SDS011;66074;50.764;6.090;2023-01-01T17:31:50;3.92;;;2.50;;
19802;SDS011;66074;50.764;6.090;2023-01-01T17:34:16;3.83;;;3.00;;
19802;SDS011;66074;50.764;6.090;2023-01-01T17:36:42;5.28;;;2.45;;
19802;SDS011;66074;50.764;6.090;2023-01-01T17:39:09;5.53;;;3.78;;
19802;SDS011;66074;50.764;6.090;2023-01-01T17:41:36;3.85;;;2.40;;
19802;SDS011;66074;50.764;6.090;2023-01-01T17:44:02;5.40;;;2.60;;
19802;SDS011;66074;50.764;6.090;2023-01-01T17:46:28;3.20;;;2.60;;
19802;SDS011;66074;50.764;6.090;2023-01-01T17:48:55;7.28;;;2.80;;